Attona Domingo — ECCZ — position and weather

sailwx.info

Track history (hours):
 
Tides and Currents Weather Stations Pressure Air Temp Water Temp Dewpoint Dewpoint Depression Visibility Wind Speed Wind Dir Waves Ship Positions

Attona Domingo

Last reported at 2017-Sep-22 01:38 UTC. Time now 2017-Sep-23 07:44 UTC.
Position N 43°27' W 001°49'.

Length 33 m.

Type: Fishing. MMSI: 224087790.

Date/timePositionNaut miles runAvg speedWind from/ knotsBaromVisibWave heightAir tempDewpointWater temp
2017-Sep-22 01:38N 43°27' W 001°49'1 8.3
2017-Sep-22 01:29N 43°25' W 001°48'2 4.5
2017-Sep-22 01:00N 43°23' W 001°47'0 0.1
2017-Sep-22 00:30N 43°23' W 001°48'0 0.0
2017-Sep-21 23:57N 43°23' W 001°48'0 0.0
2017-Sep-21 23:30N 43°23' W 001°48'0 0.0
2017-Sep-21 23:00N 43°23' W 001°48'0 0.0
2017-Sep-21 22:30N 43°23' W 001°48'1 2.9
2017-Sep-21 22:00N 43°25' W 001°48'30 2.5
2017-Sep-21 10:08N 43°53' W 001°59'1 0.3
2017-Sep-21 06:20N 43°53' W 001°58'2 4.6
2017-Sep-21 05:50N 43°51' W 002°01'2 6.0
2017-Sep-21 05:29N 43°49' W 001°60'3 6.0
2017-Sep-21 04:58N 43°47' W 001°58'3 5.9
2017-Sep-21 04:30N 43°44' W 001°57'19 5.9
2017-Sep-21 01:22N 43°27' W 001°48'3 9.1
2017-Sep-21 01:00N 43°23' W 001°47'0 0.7
2017-Sep-21 00:30N 43°23' W 001°47'0 0.1
2017-Sep-21 00:00N 43°23' W 001°48'0 0.0
2017-Sep-20 23:30N 43°23' W 001°48'0 0.0
2017-Sep-20 23:00N 43°23' W 001°48'0 0.0
2017-Sep-20 22:30N 43°23' W 001°48'0 0.0
2017-Sep-20 22:00N 43°23' W 001°48'0 0.1
2017-Sep-20 21:30N 43°23' W 001°47'4 8.9
2017-Sep-20 21:00N 43°28' W 001°48'74 1.7
2017-Sep-19 01:48N 44°41' W 001°37'1 3.2
2017-Sep-19 01:30N 44°41' W 001°36'0 0.4
2017-Sep-19 01:00N 44°42' W 001°36'0 0.4
2017-Sep-19 00:30N 44°42' W 001°36'1 0.3
2017-Sep-18 20:14N 44°41' W 001°35'2 9.2
2017-Sep-18 19:59N 44°40' W 001°33'2 4.9
2017-Sep-18 19:30N 44°39' W 001°29'4 7.3
2017-Sep-18 19:00N 44°43' W 001°28'4 7.9
2017-Sep-18 18:30N 44°47' W 001°28'0 0.3
2017-Sep-18 18:00N 44°47' W 001°28'0 0.9
2017-Sep-18 17:30N 44°46' W 001°28'2 4.4
2017-Sep-18 17:00N 44°47' W 001°25'4 8.7
2017-Sep-18 16:30N 44°51' W 001°24'510.4
2017-Sep-18 16:00N 44°57' W 001°23'13 0.7
2017-Sep-17 22:56N 44°47' W 001°35'511.0
2017-Sep-17 22:30N 44°42' W 001°36'610.7
2017-Sep-17 21:54N 44°36' W 001°37'410.6
2017-Sep-17 21:30N 44°32' W 001°37'62 9.9
2017-Sep-17 15:17N 43°30' W 001°46'3 9.6
2017-Sep-17 14:58N 43°27' W 001°46'4 8.3
2017-Sep-17 14:30N 43°23' W 001°47'1 1.2
2017-Sep-17 14:00N 43°23' W 001°47'0 0.0
2017-Sep-17 13:30N 43°23' W 001°47'  
2017-Sep-15 08:49N 43°23' W 001°47'0 0.0
2017-Sep-15 08:30N 43°23' W 001°47'0 0.0
2017-Sep-15 08:00N 43°23' W 001°47'0 0.0
2017-Sep-13 09:30N 43°23' W 001°47'0 0.0
2017-Sep-13 09:00N 43°23' W 001°47'0 0.0
2017-Sep-13 08:30N 43°23' W 001°47'0 0.0
2017-Sep-13 08:00N 43°23' W 001°47'0 0.0
2017-Sep-13 07:30N 43°23' W 001°47'0 0.0
2017-Sep-13 07:00N 43°23' W 001°47'0 0.0
2017-Sep-12 09:03N 43°23' W 001°47'0 0.0
2017-Sep-12 09:00N 43°23' W 001°47'0 0.2
2017-Sep-12 08:30N 43°23' W 001°47'0 0.0
2017-Sep-12 08:00N 43°23' W 001°47'0 0.1
2017-Sep-12 07:30N 43°23' W 001°47'  
Track history (hours):
 
Tides and Currents Weather Stations Pressure Air Temp Water Temp Dewpoint Dewpoint Depression Visibility Wind Speed Wind Dir Waves Ship Positions

Attona Domingo

Last reported at 2017-Sep-22 01:38 UTC. Time now 2017-Sep-23 07:44 UTC.
Position N 43°27' W 001°49'.

Length 33 m.

Type: Fishing. MMSI: 224087790.

Date/timePositionNaut miles runAvg speedWind from/ knotsBaromVisibWave heightAir tempDewpointWater temp
2017-Sep-22 01:38N 43°27' W 001°49'1 8.3
2017-Sep-22 01:29N 43°25' W 001°48'2 4.5
2017-Sep-22 01:00N 43°23' W 001°47'0 0.1
2017-Sep-22 00:30N 43°23' W 001°48'0 0.0
2017-Sep-21 23:57N 43°23' W 001°48'0 0.0
2017-Sep-21 23:30N 43°23' W 001°48'0 0.0
2017-Sep-21 23:00N 43°23' W 001°48'0 0.0
2017-Sep-21 22:30N 43°23' W 001°48'1 2.9
2017-Sep-21 22:00N 43°25' W 001°48'30 2.5
2017-Sep-21 10:08N 43°53' W 001°59'1 0.3
2017-Sep-21 06:20N 43°53' W 001°58'2 4.6
2017-Sep-21 05:50N 43°51' W 002°01'2 6.0
2017-Sep-21 05:29N 43°49' W 001°60'3 6.0
2017-Sep-21 04:58N 43°47' W 001°58'3 5.9
2017-Sep-21 04:30N 43°44' W 001°57'19 5.9
2017-Sep-21 01:22N 43°27' W 001°48'3 9.1
2017-Sep-21 01:00N 43°23' W 001°47'0 0.7
2017-Sep-21 00:30N 43°23' W 001°47'0 0.1
2017-Sep-21 00:00N 43°23' W 001°48'0 0.0
2017-Sep-20 23:30N 43°23' W 001°48'0 0.0
2017-Sep-20 23:00N 43°23' W 001°48'0 0.0
2017-Sep-20 22:30N 43°23' W 001°48'0 0.0
2017-Sep-20 22:00N 43°23' W 001°48'0 0.1
2017-Sep-20 21:30N 43°23' W 001°47'4 8.9
2017-Sep-20 21:00N 43°28' W 001°48'74 1.7
2017-Sep-19 01:48N 44°41' W 001°37'1 3.2
2017-Sep-19 01:30N 44°41' W 001°36'0 0.4
2017-Sep-19 01:00N 44°42' W 001°36'0 0.4
2017-Sep-19 00:30N 44°42' W 001°36'1 0.3
2017-Sep-18 20:14N 44°41' W 001°35'2 9.2
2017-Sep-18 19:59N 44°40' W 001°33'2 4.9
2017-Sep-18 19:30N 44°39' W 001°29'4 7.3
2017-Sep-18 19:00N 44°43' W 001°28'4 7.9
2017-Sep-18 18:30N 44°47' W 001°28'0 0.3
2017-Sep-18 18:00N 44°47' W 001°28'0 0.9
2017-Sep-18 17:30N 44°46' W 001°28'2 4.4
2017-Sep-18 17:00N 44°47' W 001°25'4 8.7
2017-Sep-18 16:30N 44°51' W 001°24'510.4
2017-Sep-18 16:00N 44°57' W 001°23'13 0.7
2017-Sep-17 22:56N 44°47' W 001°35'511.0
2017-Sep-17 22:30N 44°42' W 001°36'610.7
2017-Sep-17 21:54N 44°36' W 001°37'410.6
2017-Sep-17 21:30N 44°32' W 001°37'62 9.9
2017-Sep-17 15:17N 43°30' W 001°46'3 9.6
2017-Sep-17 14:58N 43°27' W 001°46'4 8.3
2017-Sep-17 14:30N 43°23' W 001°47'1 1.2
2017-Sep-17 14:00N 43°23' W 001°47'0 0.0
2017-Sep-17 13:30N 43°23' W 001°47'  
2017-Sep-15 08:49N 43°23' W 001°47'0 0.0
2017-Sep-15 08:30N 43°23' W 001°47'0 0.0
2017-Sep-15 08:00N 43°23' W 001°47'0 0.0
2017-Sep-13 09:30N 43°23' W 001°47'0 0.0
2017-Sep-13 09:00N 43°23' W 001°47'0 0.0
2017-Sep-13 08:30N 43°23' W 001°47'0 0.0
2017-Sep-13 08:00N 43°23' W 001°47'0 0.0
2017-Sep-13 07:30N 43°23' W 001°47'0 0.0
2017-Sep-13 07:00N 43°23' W 001°47'0 0.0
2017-Sep-12 09:03N 43°23' W 001°47'0 0.0
2017-Sep-12 09:00N 43°23' W 001°47'0 0.2
2017-Sep-12 08:30N 43°23' W 001°47'0 0.0
2017-Sep-12 08:00N 43°23' W 001°47'0 0.1
2017-Sep-12 07:30N 43°23' W 001°47'  

Dump ship's entire track history